Time;durP1;ratioP1;P1;durP2;ratioP2;P2;SDS_P1;SDS_P2;PMS_P1;PMS_P2;Temp;Humidity;BMP_temperature;BMP_pressure;BME280_temperature;BME280_humidity;BME280_pressure;Samples;Min_cycle;Max_cycle;Signal;HPM_P1;HPM_P2
2024/03/14 00:01:37;;;;;;;20.20;11.10;;;;;;;3.87;73.34;100536.30;87565;265;136680;-74
2024/03/14 00:03:38;;;;;;;17.70;10.90;;;;;;;3.87;73.36;100533.23;87641;266;22582;-73
2024/03/14 00:05:40;;;;;;;18.90;11.10;;;;;;;3.85;73.41;100534.08;87547;269;136247;-74
2024/03/14 00:07:43;;;;;;;14.00;10.70;;;;;;;3.78;73.90;100531.04;87695;270;22560;-73
2024/03/14 00:09:44;;;;;;;20.60;12.30;;;;;;;3.70;74.14;100526.11;87488;273;137690;-73
2024/03/14 00:11:48;;;;;;;24.10;10.70;;;;;;;3.66;74.42;100522.82;87708;273;25241;-73
2024/03/14 00:13:50;;;;;;;14.50;10.00;;;;;;;3.64;74.93;100522.73;87319;272;136320;-75
2024/03/14 00:15:52;;;;;;;13.60;9.80;;;;;;;3.59;75.34;100523.58;87550;271;25172;-74
2024/03/14 00:17:54;;;;;;;13.10;9.60;;;;;;;3.50;76.21;100526.52;87441;270;136484;-73
2024/03/14 00:19:55;;;;;;;15.50;9.10;;;;;;;3.40;76.62;100526.70;87486;271;25150;-73
2024/03/14 00:21:57;;;;;;;15.10;9.70;;;;;;;3.31;77.07;100523.83;87531;275;135747;-73
2024/03/14 00:23:59;;;;;;;12.70;8.80;;;;;;;3.25;77.35;100516.77;87528;272;22832;-73
2024/03/14 00:26:01;;;;;;;14.90;9.50;;;;;;;3.24;78.01;100513.89;87455;266;137320;-73
2024/03/14 00:28:03;;;;;;;13.40;9.30;;;;;;;3.24;78.56;100515.98;87450;277;136922;-73
2024/03/14 00:30:08;;;;;;;11.40;8.00;;;;;;;3.24;78.52;100514.75;87562;275;24010;-71
2024/03/14 00:32:11;;;;;;;14.70;9.30;;;;;;;3.25;78.81;100515.70;87767;273;136913;-71
2024/03/14 00:34:15;;;;;;;15.40;10.10;;;;;;;3.25;78.69;100521.70;87865;273;22638;-73
2024/03/14 00:36:17;;;;;;;16.00;9.20;;;;;;;3.25;78.71;100528.04;87202;274;137649;-73
2024/03/14 00:38:19;;;;;;;11.10;9.10;;;;;;;3.26;78.64;100525.85;87513;270;22584;-74
2024/03/14 00:40:22;;;;;;;14.40;9.30;;;;;;;3.28;78.76;100522.16;87435;269;136124;-74
2024/03/14 00:42:24;;;;;;;12.90;9.60;;;;;;;3.27;79.21;100522.77;87602;273;22552;-73
2024/03/14 00:44:27;;;;;;;12.50;9.40;;;;;;;3.23;79.46;100522.62;87451;269;136871;-75
2024/03/14 00:46:33;;;;;;;12.70;8.80;;;;;;;3.17;79.52;100521.36;87684;273;22567;-73
2024/03/14 00:48:37;;;;;;;15.20;9.30;;;;;;;3.16;79.87;100522.39;87518;269;137730;-75
2024/03/14 00:50:41;;;;;;;12.90;9.00;;;;;;;3.15;79.85;100521.91;87677;270;25120;-74
2024/03/14 00:52:44;;;;;;;14.50;10.20;;;;;;;3.17;80.11;100521.95;87559;269;137733;-75
2024/03/14 00:54:46;;;;;;;16.50;10.00;;;;;;;3.17;79.57;100518.38;87563;270;25198;-76
2024/03/14 00:56:48;;;;;;;14.30;9.30;;;;;;;3.17;79.55;100519.29;87482;270;135190;-73
2024/03/14 00:58:50;;;;;;;15.80;10.30;;;;;;;3.15;79.33;100515.96;87387;274;22544;-76
2024/03/14 01:00:52;;;;;;;17.10;10.30;;;;;;;3.13;78.95;100516.45;87647;271;136215;-72
2024/03/14 01:02:54;;;;;;;19.60;10.50;;;;;;;3.09;78.99;100515.34;87338;269;24011;-73
2024/03/14 01:04:56;;;;;;;13.70;10.10;;;;;;;3.06;78.95;100512.12;87174;268;135976;-74
2024/03/14 01:06:57;;;;;;;15.80;9.30;;;;;;;3.03;79.11;100519.79;87726;274;22536;-72
2024/03/14 01:09:01;;;;;;;17.80;9.70;;;;;;;3.01;79.46;100514.34;87557;268;136263;-73
2024/03/14 01:12:06;;;;;;;15.30;10.00;;;;;;;2.90;80.02;100512.13;85135;304;602131;-74
2024/03/14 01:14:08;;;;;;;16.00;10.30;;;;;;;2.88;80.13;100510.71;86788;290;22580;-74
2024/03/14 01:16:10;;;;;;;14.60;10.00;;;;;;;2.87;80.17;100506.97;86598;285;137099;-73
2024/03/14 01:18:12;;;;;;;15.40;10.70;;;;;;;2.85;80.21;100507.13;86711;286;23250;-73
2024/03/14 01:20:16;;;;;;;14.10;9.80;;;;;;;2.84;80.42;100515.52;86598;287;137353;-74
2024/03/14 01:22:18;;;;;;;17.50;10.80;;;;;;;2.82;80.47;100514.62;86510;289;22586;-74
2024/03/14 01:24:20;;;;;;;17.50;10.50;;;;;;;2.79;80.74;100513.09;86407;286;135549;-73
2024/03/14 01:26:22;;;;;;;20.70;10.10;;;;;;;2.79;80.75;100508.57;86173;276;813910;-74
2024/03/14 01:28:24;;;;;;;15.50;10.10;;;;;;;2.81;80.83;100506.78;86965;279;137793;-75
2024/03/14 01:30:25;;;;;;;13.80;9.80;;;;;;;2.84;80.92;100503.91;86841;271;22648;-75
2024/03/14 01:32:27;;;;;;;18.10;11.30;;;;;;;2.84;80.71;100501.05;86835;279;136419;-75
2024/03/14 01:34:29;;;;;;;18.50;10.20;;;;;;;2.82;81.04;100501.05;87407;274;22522;-74
2024/03/14 01:36:31;;;;;;;12.10;10.30;;;;;;;2.78;81.11;100502.67;87260;270;135844;-74
2024/03/14 01:38:34;;;;;;;14.50;9.90;;;;;;;2.74;81.20;100500.91;87456;278;25272;-73
2024/03/14 01:40:36;;;;;;;14.90;10.30;;;;;;;2.72;81.40;100503.67;87110;279;136722;-73
2024/03/14 01:42:43;;;;;;;15.30;10.20;;;;;;;2.70;81.45;100506.71;87369;274;22596;-73
2024/03/14 01:44:59;;;;;;;16.90;10.30;;;;;;;2.66;81.63;100508.95;87095;276;135305;-75
2024/03/14 01:47:00;;;;;;;13.10;10.20;;;;;;;2.65;81.59;100512.73;87470;274;25266;-75
2024/03/14 01:49:02;;;;;;;14.10;11.20;;;;;;;2.67;81.72;100507.15;87283;274;136486;-77
2024/03/14 01:51:04;;;;;;;17.50;10.70;;;;;;;2.68;81.69;100510.56;87192;283;22561;-75
2024/03/14 01:53:06;;;;;;;18.00;10.10;;;;;;;2.69;81.97;100508.57;86967;270;136946;-75
2024/03/14 01:55:09;;;;;;;14.40;9.70;;;;;;;2.71;81.89;100506.77;87352;270;22559;-74
2024/03/14 01:57:11;;;;;;;19.80;10.30;;;;;;;2.71;82.06;100511.02;87316;273;135519;-74
2024/03/14 01:59:13;;;;;;;16.20;10.90;;;;;;;2.68;82.17;100515.22;87539;277;22570;-77
2024/03/14 02:01:15;;;;;;;16.20;10.90;;;;;;;2.67;82.25;100515.05;87369;281;137042;-76
2024/03/14 02:03:17;;;;;;;16.80;10.20;;;;;;;2.67;82.19;100509.09;87268;276;24811;-77
2024/03/14 02:05:30;;;;;;;15.20;10.40;;;;;;;2.65;82.24;100502.34;87372;277;135790;-76
2024/03/14 02:07:37;;;;;;;12.00;9.40;;;;;;;2.65;82.59;100503.78;87422;281;22581;-75
2024/03/14 02:09:40;;;;;;;16.40;11.40;;;;;;;2.67;82.96;100512.00;87343;281;137425;-74
2024/03/14 02:11:42;;;;;;;15.20;10.10;;;;;;;2.70;82.61;100509.01;87599;274;22836;-75
2024/03/14 02:13:45;;;;;;;13.70;9.50;;;;;;;2.70;82.20;100507.05;87352;281;136098;-76
2024/03/14 02:15:46;;;;;;;13.70;10.00;;;;;;;2.67;82.04;100501.98;87418;269;22642;-75
2024/03/14 02:17:48;;;;;;;15.00;9.40;;;;;;;2.62;82.22;100506.49;87275;273;135866;-76
2024/03/14 02:19:51;;;;;;;20.10;11.10;;;;;;;2.58;82.43;100507.94;87400;281;22574;-76
2024/03/14 02:22:00;;;;;;;17.80;11.00;;;;;;;2.53;82.40;100504.44;87279;273;137599;-76
2024/03/14 02:24:02;;;;;;;14.50;10.30;;;;;;;2.49;82.73;100502.70;87657;278;22538;-73
2024/03/14 02:26:06;;;;;;;18.70;10.50;;;;;;;2.48;82.77;100502.77;87700;273;24142;-71
2024/03/14 02:28:09;;;;;;;20.20;10.30;;;;;;;2.47;82.95;100503.77;87576;273;136387;-74
2024/03/14 02:30:11;;;;;;;15.40;9.80;;;;;;;2.48;82.92;100504.91;87243;275;25082;-74
2024/03/14 02:32:13;;;;;;;15.80;9.80;;;;;;;2.49;82.89;100503.09;87272;275;136393;-75
2024/03/14 02:34:15;;;;;;;18.30;10.90;;;;;;;2.49;82.83;100502.17;87443;277;24955;-74
2024/03/14 02:36:17;;;;;;;13.20;9.80;;;;;;;2.51;83.15;100503.92;87389;273;136674;-73
2024/03/14 02:38:18;;;;;;;17.90;10.60;;;;;;;2.51;83.17;100510.75;87496;273;24157;-76
2024/03/14 02:40:20;;;;;;;21.90;10.70;;;;;;;2.48;83.30;100511.14;87249;274;135850;-74
2024/03/14 02:42:22;;;;;;;15.60;12.30;;;;;;;2.47;83.41;100512.19;87433;280;25146;-75
2024/03/14 02:44:24;;;;;;;18.10;11.00;;;;;;;2.44;83.40;100513.62;87333;273;136057;-72
2024/03/14 02:46:25;;;;;;;13.50;10.10;;;;;;;2.41;83.48;100511.41;86992;269;26396;-74
2024/03/14 02:48:27;;;;;;;15.70;10.80;;;;;;;2.39;83.85;100510.36;87388;272;135958;-73
2024/03/14 02:50:29;;;;;;;16.70;10.70;;;;;;;2.40;83.84;100506.59;87410;264;25149;-75
2024/03/14 02:52:31;;;;;;;16.40;10.60;;;;;;;2.42;83.89;100508.38;87173;270;136210;-74
2024/03/14 02:54:33;;;;;;;18.00;10.80;;;;;;;2.44;84.03;100506.30;87331;273;22644;-75
2024/03/14 02:56:35;;;;;;;16.80;11.20;;;;;;;2.46;84.03;100504.51;87288;269;136457;-76
2024/03/14 02:58:36;;;;;;;18.30;10.40;;;;;;;2.47;84.07;100505.70;87536;273;24158;-75
2024/03/14 03:00:38;;;;;;;17.70;10.20;;;;;;;2.45;84.18;100505.45;87440;265;136026;-72
2024/03/14 03:02:41;;;;;;;18.20;11.40;;;;;;;2.45;84.34;100505.52;86958;282;22556;-73
2024/03/14 03:04:44;;;;;;;16.10;10.10;;;;;;;2.43;84.45;100509.38;87110;269;135585;-74
2024/03/14 03:06:54;;;;;;;16.60;10.50;;;;;;;2.41;84.41;100508.63;87522;272;25099;-75
2024/03/14 03:08:57;;;;;;;13.00;10.20;;;;;;;2.39;84.50;100508.84;87378;270;135618;-75
2024/03/14 03:10:59;;;;;;;15.80;10.50;;;;;;;2.39;84.58;100503.95;87640;270;22718;-75
2024/03/14 03:13:01;;;;;;;15.10;9.90;;;;;;;2.41;84.62;100505.68;86785;279;136860;-75
2024/03/14 03:15:04;;;;;;;19.80;10.20;;;;;;;2.42;84.56;100504.17;87522;269;25240;-77
2024/03/14 03:17:07;;;;;;;13.90;10.00;;;;;;;2.43;84.57;100501.95;87228;277;138187;-76
2024/03/14 03:19:09;;;;;;;17.00;9.30;;;;;;;2.45;84.75;100502.89;87353;277;22559;-74
2024/03/14 03:21:11;;;;;;;15.10;10.10;;;;;;;2.44;84.85;100499.10;87370;277;137071;-77
2024/03/14 03:23:17;;;;;;;16.90;10.60;;;;;;;2.42;85.19;100498.56;87392;272;22561;-76
2024/03/14 03:25:19;;;;;;;11.10;9.00;;;;;;;2.41;85.32;100499.53;87050;271;135653;-78
2024/03/14 03:27:23;;;;;;;14.40;10.60;;;;;;;2.41;85.36;100501.81;87191;275;24070;-77
2024/03/14 03:29:25;;;;;;;13.70;9.50;;;;;;;2.41;85.22;100503.55;87248;274;135712;-74
2024/03/14 03:31:28;;;;;;;13.80;9.90;;;;;;;2.43;85.19;100497.91;87340;277;22617;-74
2024/03/14 03:33:31;;;;;;;10.80;7.90;;;;;;;2.46;84.80;100494.54;87238;280;136254;-75
2024/03/14 03:35:33;;;;;;;10.00;8.20;;;;;;;2.47;84.99;100494.25;87521;280;25202;-74
2024/03/14 03:37:36;;;;;;;14.30;8.60;;;;;;;2.50;85.00;100498.58;87262;269;137575;-75
2024/03/14 03:39:39;;;;;;;13.20;9.20;;;;;;;2.51;84.99;100497.77;87153;266;22577;-76
2024/03/14 03:41:40;;;;;;;10.70;8.30;;;;;;;2.50;84.90;100495.42;87347;280;135825;-75
2024/03/14 03:43:45;;;;;;;13.20;8.80;;;;;;;2.48;85.03;100494.03;87436;280;23739;-75
2024/03/14 03:45:47;;;;;;;11.60;8.80;;;;;;;2.46;85.21;100497.12;87288;269;135645;-75
2024/03/14 03:47:49;;;;;;;14.00;9.80;;;;;;;2.47;85.21;100498.15;87461;280;22640;-73
2024/03/14 03:49:53;;;;;;;11.20;8.40;;;;;;;2.46;85.08;100503.61;87398;272;136402;-77
2024/03/14 03:51:55;;;;;;;13.50;8.50;;;;;;;2.50;85.08;100500.91;87463;280;24166;-75
2024/03/14 03:53:57;;;;;;;11.10;8.40;;;;;;;2.53;84.96;100498.14;87455;279;136045;-75
2024/03/14 03:56:02;;;;;;;11.10;7.80;;;;;;;2.57;84.85;100497.98;87242;274;25131;-77
2024/03/14 03:58:04;;;;;;;12.20;8.20;;;;;;;2.59;84.67;100499.75;87522;268;22577;-77
2024/03/14 04:00:32;;;;;;;10.60;7.70;;;;;;;2.58;84.65;100498.45;87354;276;135888;-74
2024/03/14 04:02:29;;;;;;;11.30;8.80;;;;;;;2.55;84.96;100496.41;87499;273;24286;-75
2024/03/14 04:04:32;;;;;;;8.10;6.90;;;;;;;2.56;84.64;100497.71;87566;273;135720;-74
2024/03/14 04:06:34;;;;;;;12.30;8.10;;;;;;;2.56;84.73;100494.05;87686;271;24618;-77
2024/03/14 04:08:37;;;;;;;14.30;8.60;;;;;;;2.54;84.57;100486.30;87431;268;136747;-75
2024/03/14 04:10:38;;;;;;;15.00;8.30;;;;;;;2.52;84.64;100481.20;87649;276;22581;-75
2024/03/14 04:12:40;;;;;;;12.40;8.30;;;;;;;2.55;84.68;100480.98;87549;268;136238;-73
2024/03/14 04:14:44;;;;;;;10.30;7.30;;;;;;;2.58;84.65;100478.22;87513;264;23179;-75
2024/03/14 04:16:46;;;;;;;11.50;8.00;;;;;;;2.61;84.66;100478.83;87483;278;136007;-76
2024/03/14 04:18:49;;;;;;;13.70;7.40;;;;;;;2.62;84.94;100472.49;87507;266;22571;-74
2024/03/14 04:20:51;;;;;;;13.60;7.70;;;;;;;2.63;85.20;100472.02;87385;266;136391;-75
2024/03/14 04:22:54;;;;;;;10.40;7.60;;;;;;;2.62;85.06;100475.26;87551;269;22548;-75
2024/03/14 04:24:56;;;;;;;10.90;8.10;;;;;;;2.63;85.10;100484.31;87370;273;135715;-73
2024/03/14 04:27:05;;;;;;;13.80;8.90;;;;;;;2.62;85.14;100488.58;87613;276;25086;-75
2024/03/14 04:29:07;;;;;;;13.30;8.60;;;;;;;2.59;85.48;100492.55;87352;265;136083;-75
2024/03/14 04:31:08;;;;;;;10.60;6.90;;;;;;;2.59;85.92;100493.10;87578;268;22560;-76
2024/03/14 04:33:12;;;;;;;9.40;7.30;;;;;;;2.61;86.02;100490.47;87464;268;137576;-74
2024/03/14 04:35:15;;;;;;;12.10;8.60;;;;;;;2.65;85.84;100493.42;87376;265;22887;-76
2024/03/14 04:37:18;;;;;;;19.80;8.10;;;;;;;2.69;85.64;100503.29;87570;273;137282;-76
2024/03/14 04:39:20;;;;;;;13.60;8.00;;;;;;;2.72;85.63;100504.40;87573;276;22625;-75
2024/03/14 04:41:24;;;;;;;11.90;7.90;;;;;;;2.76;85.52;100500.20;87431;268;136385;-75
2024/03/14 04:43:27;;;;;;;11.00;8.10;;;;;;;2.81;85.57;100497.96;87530;270;22559;-75
2024/03/14 04:45:29;;;;;;;14.30;9.00;;;;;;;2.82;85.15;100500.02;87444;268;135939;-75
2024/03/14 04:47:32;;;;;;;11.40;8.50;;;;;;;2.82;84.97;100504.09;87664;273;25185;-75
2024/03/14 04:49:34;;;;;;;11.70;8.00;;;;;;;2.81;85.04;100507.28;87539;268;135835;-73
2024/03/14 04:51:37;;;;;;;11.50;8.30;;;;;;;2.83;85.04;100510.44;87472;275;22567;-76
2024/03/14 04:53:39;;;;;;;11.60;8.40;;;;;;;2.85;84.81;100511.02;87662;273;138049;-76
2024/03/14 04:55:41;;;;;;;8.80;7.00;;;;;;;2.88;85.19;100514.29;87642;264;22573;-74
2024/03/14 04:57:45;;;;;;;9.50;7.30;;;;;;;2.88;85.03;100514.73;87498;276;137542;-75
2024/03/14 04:59:48;;;;;;;11.30;8.60;;;;;;;2.87;84.53;100511.66;87560;273;25354;-75
2024/03/14 05:01:50;;;;;;;22.50;10.30;;;;;;;2.88;84.65;100512.70;87484;276;137130;-73
2024/03/14 05:03:52;;;;;;;11.90;8.90;;;;;;;2.89;84.81;100513.29;87741;273;22565;-74
2024/03/14 05:05:56;;;;;;;13.10;9.20;;;;;;;2.89;85.01;100513.23;87572;273;136595;-74
2024/03/14 05:07:59;;;;;;;10.90;8.50;;;;;;;2.91;84.74;100512.05;87780;268;25118;-74
2024/03/14 05:10:02;;;;;;;9.30;7.20;;;;;;;2.91;84.08;100515.15;87777;272;137139;-74
2024/03/14 05:12:05;;;;;;;15.80;7.80;;;;;;;2.93;83.79;100513.97;87572;273;136681;-74
2024/03/14 05:14:07;;;;;;;10.70;8.60;;;;;;;2.99;83.67;100516.81;87747;262;24048;-73
2024/03/14 05:16:12;;;;;;;11.60;8.60;;;;;;;3.04;83.70;100514.46;87396;263;136521;-74
2024/03/14 05:18:15;;;;;;;16.20;8.20;;;;;;;3.09;83.17;100518.60;87564;268;25108;-75
2024/03/14 05:20:17;;;;;;;10.50;9.20;;;;;;;3.10;82.86;100521.30;87791;273;136116;-73
2024/03/14 05:22:19;;;;;;;13.10;9.00;;;;;;;3.10;82.84;100524.65;87922;273;22558;-72
2024/03/14 05:24:21;;;;;;;11.70;7.70;;;;;;;3.10;82.44;100529.36;88378;276;136284;-72
2024/03/14 05:26:23;;;;;;;10.90;8.80;;;;;;;3.08;82.03;100531.44;88851;272;25173;-72
2024/03/14 05:28:24;;;;;;;11.20;8.00;;;;;;;3.07;81.94;100533.32;88112;268;135743;-69
2024/03/14 05:30:26;;;;;;;15.90;9.70;;;;;;;3.04;81.97;100534.42;87987;271;22536;-68
2024/03/14 05:32:28;;;;;;;9.80;7.60;;;;;;;2.99;82.05;100537.68;87894;268;136965;-69
2024/03/14 05:34:32;;;;;;;14.40;8.70;;;;;;;2.97;82.10;100532.94;87860;269;25274;-72
2024/03/14 05:36:34;;;;;;;13.40;8.50;;;;;;;3.01;81.93;100535.77;88135;264;136712;-70
2024/03/14 05:38:35;;;;;;;13.20;8.50;;;;;;;3.01;81.91;100539.98;87775;273;25233;-70
2024/03/14 05:40:37;;;;;;;14.40;8.80;;;;;;;3.01;82.05;100536.12;87527;268;137650;-70
2024/03/14 05:42:39;;;;;;;14.80;9.80;;;;;;;2.99;82.14;100538.80;87824;272;22564;-70
2024/03/14 05:44:41;;;;;;;11.70;8.90;;;;;;;2.97;82.32;100541.61;87480;266;137553;-67
2024/03/14 05:46:46;;;;;;;12.80;9.90;;;;;;;2.94;82.48;100539.88;87334;271;22555;-76
2024/03/14 05:48:48;;;;;;;13.80;8.30;;;;;;;2.92;82.78;100540.03;87398;273;135903;-77
2024/03/14 05:50:50;;;;;;;12.50;8.70;;;;;;;2.90;82.94;100548.61;87437;277;26291;-76
2024/03/14 05:52:52;;;;;;;12.30;9.20;;;;;;;2.91;83.32;100556.47;87387;266;138678;-76
2024/03/14 05:54:54;;;;;;;16.70;8.60;;;;;;;2.90;84.07;100552.84;87496;268;22577;-75
2024/03/14 05:56:56;;;;;;;8.70;7.40;;;;;;;2.90;85.24;100562.67;87435;266;136481;-79
2024/03/14 05:58:59;;;;;;;12.90;8.00;;;;;;;2.87;87.59;100565.27;87661;266;22597;-83
2024/03/14 06:01:06;;;;;;;10.40;8.40;;;;;;;2.79;90.49;100563.85;87740;273;137340;-81
2024/03/14 06:03:08;;;;;;;11.30;8.20;;;;;;;2.69;93.14;100551.38;87563;269;26921;-80
2024/03/14 06:05:10;;;;;;;13.10;6.70;;;;;;;2.58;95.34;100544.20;87492;267;137970;-79
2024/03/14 06:07:13;;;;;;;9.40;7.50;;;;;;;2.47;96.95;100544.41;87395;273;26175;-79
2024/03/14 06:09:15;;;;;;;9.30;7.50;;;;;;;2.39;98.59;100542.88;87273;276;138667;-79
2024/03/14 06:11:17;;;;;;;11.50;8.10;;;;;;;2.34;100.00;100538.02;87558;268;22580;-78
2024/03/14 06:13:19;;;;;;;12.40;8.40;;;;;;;2.29;100.00;100544.91;87381;264;137037;-81
2024/03/14 06:15:21;;;;;;;14.80;8.30;;;;;;;2.23;100.00;100545.65;87595;264;24077;-79
2024/03/14 06:17:25;;;;;;;10.60;7.00;;;;;;;2.18;100.00;100546.36;87491;278;137074;-77
2024/03/14 06:19:27;;;;;;;13.80;8.20;;;;;;;2.16;100.00;100543.92;87704;270;22515;-81
2024/03/14 06:21:29;;;;;;;10.20;8.00;;;;;;;2.10;100.00;100550.38;87572;267;136870;-80
2024/03/14 06:23:32;;;;;;;15.90;9.90;;;;;;;2.05;100.00;100550.08;87895;264;27151;-82
2024/03/14 06:25:34;;;;;;;10.50;8.90;;;;;;;2.03;100.00;100551.63;87669;264;137065;-82
2024/03/14 06:27:36;;;;;;;9.70;8.70;;;;;;;2.02;100.00;100548.06;87760;266;23998;-80
2024/03/14 06:29:44;;;;;;;10.90;8.90;;;;;;;2.01;100.00;100551.44;87777;273;136888;-80
2024/03/14 06:31:46;;;;;;;12.20;8.90;;;;;;;2.00;100.00;100552.02;88196;268;24516;-78
2024/03/14 06:33:50;;;;;;;16.70;8.80;;;;;;;2.03;100.00;100548.17;87769;266;136899;-83
2024/03/14 06:35:55;;;;;;;11.10;8.20;;;;;;;2.05;100.00;100544.66;87759;273;25076;-82
2024/03/14 06:37:57;;;;;;;9.30;7.90;;;;;;;2.08;100.00;100542.98;87787;271;138583;-83
2024/03/14 06:40:01;;;;;;;9.10;8.10;;;;;;;2.11;100.00;100545.72;87586;274;25281;-83
2024/03/14 06:42:04;;;;;;;11.10;8.70;;;;;;;2.12;100.00;100546.33;87892;267;22817;-78
2024/03/14 06:44:07;;;;;;;13.10;9.10;;;;;;;2.11;100.00;100545.55;87757;278;137336;-79
2024/03/14 06:46:12;;;;;;;10.90;9.70;;;;;;;2.10;100.00;100550.86;87600;268;25118;-83
2024/03/14 06:48:17;;;;;;;9.70;7.40;;;;;;;2.10;100.00;100553.88;87645;268;137070;-80
2024/03/14 06:50:20;;;;;;;8.60;7.80;;;;;;;2.10;100.00;100553.84;87438;273;25079;-83
2024/03/14 06:52:21;;;;;;;14.10;10.10;;;;;;;2.10;100.00;100550.89;87350;276;136757;-83
2024/03/14 06:54:25;;;;;;;12.30;8.50;;;;;;;2.12;100.00;100551.23;87359;278;24010;-74
2024/03/14 06:56:27;;;;;;;13.40;9.20;;;;;;;2.18;100.00;100555.31;87479;268;136791;-74
2024/03/14 06:58:28;;;;;;;12.70;9.80;;;;;;;2.24;100.00;100552.68;87847;272;22584;-72
2024/03/14 07:00:30;;;;;;;10.50;9.20;;;;;;;2.27;100.00;100556.98;87570;264;138512;-73
2024/03/14 07:02:34;;;;;;;12.00;9.10;;;;;;;2.30;100.00;100559.17;87839;271;22572;-73
2024/03/14 07:04:37;;;;;;;10.30;8.90;;;;;;;2.37;100.00;100561.95;87620;264;138016;-72
2024/03/14 07:06:39;;;;;;;12.10;9.90;;;;;;;2.40;100.00;100561.36;87837;268;22569;-72
2024/03/14 07:08:42;;;;;;;13.50;8.80;;;;;;;2.40;100.00;100566.60;87495;268;137255;-75
2024/03/14 07:10:48;;;;;;;15.80;11.00;;;;;;;2.40;100.00;100572.55;87405;270;22735;-77
2024/03/14 07:12:51;;;;;;;11.90;9.70;;;;;;;2.41;100.00;100575.64;87481;267;137044;-79
2024/03/14 07:14:53;;;;;;;13.00;10.10;;;;;;;2.43;100.00;100576.40;87779;270;22559;-77
2024/03/14 07:16:54;;;;;;;15.10;11.50;;;;;;;2.44;100.00;100581.05;87578;269;137744;-73
2024/03/14 07:18:56;;;;;;;16.00;12.00;;;;;;;2.42;100.00;100580.67;87543;264;24023;-73
2024/03/14 07:20:58;;;;;;;12.50;10.60;;;;;;;2.40;100.00;100586.60;87262;269;138474;-73
2024/03/14 07:23:00;;;;;;;16.00;10.10;;;;;;;2.39;100.00;100586.70;87534;270;23956;-72
2024/03/14 07:25:02;;;;;;;11.70;10.20;;;;;;;2.39;100.00;100586.84;87565;268;137266;-70
2024/03/14 07:27:08;;;;;;;13.70;10.10;;;;;;;2.41;100.00;100585.83;87612;272;25186;-73
2024/03/14 07:29:10;;;;;;;13.50;10.00;;;;;;;2.45;100.00;100584.77;87414;277;136591;-73
2024/03/14 07:31:16;;;;;;;12.20;9.90;;;;;;;2.49;100.00;100584.98;87671;273;25295;-72
2024/03/14 07:33:18;;;;;;;16.90;10.20;;;;;;;2.50;100.00;100591.71;87505;270;139101;-72
2024/03/14 07:35:19;;;;;;;21.00;13.00;;;;;;;2.50;100.00;100591.15;87727;269;22515;-72
2024/03/14 07:37:24;;;;;;;14.60;12.60;;;;;;;2.48;100.00;100595.55;87276;271;136715;-72
2024/03/14 07:39:29;;;;;;;16.10;13.20;;;;;;;2.45;100.00;100594.25;87530;274;25207;-75
2024/03/14 07:41:31;;;;;;;13.70;11.60;;;;;;;2.49;100.00;100592.36;87489;271;137067;-72
2024/03/14 07:43:35;;;;;;;13.10;11.80;;;;;;;2.55;100.00;100589.56;87780;264;25057;-72
2024/03/14 07:45:36;;;;;;;19.50;11.70;;;;;;;2.57;100.00;100592.90;87460;269;136571;-72
2024/03/14 07:47:38;;;;;;;15.80;11.30;;;;;;;2.64;100.00;100593.57;87714;264;22511;-73
2024/03/14 07:49:41;;;;;;;11.40;10.30;;;;;;;2.75;100.00;100591.73;87156;276;137544;-72
2024/03/14 07:51:43;;;;;;;14.70;11.80;;;;;;;2.84;100.00;100591.12;87306;268;23835;-72
2024/03/14 07:53:46;;;;;;;14.20;12.40;;;;;;;2.86;100.00;100595.31;87272;268;137280;-72
2024/03/14 07:55:49;;;;;;;14.30;11.20;;;;;;;2.89;100.00;100591.52;87355;272;23981;-73
2024/03/14 07:57:51;;;;;;;11.80;10.10;;;;;;;2.97;100.00;100594.25;87331;273;138087;-71
2024/03/14 07:59:53;;;;;;;18.50;12.30;;;;;;;3.04;100.00;100594.85;87263;260;22552;-73
2024/03/14 08:01:56;;;;;;;16.50;11.60;;;;;;;3.07;100.00;100594.20;87232;265;137186;-70
2024/03/14 08:04:00;;;;;;;14.60;11.80;;;;;;;3.16;100.00;100589.82;87441;273;24028;-71
2024/03/14 08:06:02;;;;;;;13.80;12.30;;;;;;;3.24;100.00;100590.30;87385;267;137561;-71
2024/03/14 08:08:07;;;;;;;14.80;11.60;;;;;;;3.31;100.00;100587.42;87327;270;137425;-71
2024/03/14 08:10:22;;;;;;;12.80;10.40;;;;;;;3.43;100.00;100594.57;87292;276;25252;-71
2024/03/14 08:12:24;;;;;;;15.50;11.50;;;;;;;3.56;100.00;100592.94;87155;270;137924;-72
2024/03/14 08:14:26;;;;;;;17.50;11.50;;;;;;;3.68;100.00;100591.64;87331;274;24315;-73
2024/03/14 08:16:28;;;;;;;14.30;10.20;;;;;;;3.81;100.00;100588.47;87247;273;137526;-73
2024/03/14 08:18:33;;;;;;;15.80;10.00;;;;;;;3.91;100.00;100585.61;87425;264;24046;-71
2024/03/14 08:20:36;;;;;;;12.70;11.30;;;;;;;3.95;100.00;100589.23;87246;267;136521;-71
2024/03/14 08:22:38;;;;;;;13.20;10.80;;;;;;;3.95;100.00;100585.19;87424;275;22571;-70
2024/03/14 08:24:46;;;;;;;12.30;10.90;;;;;;;3.97;100.00;100585.45;87255;267;137182;-70
2024/03/14 08:26:50;;;;;;;14.70;12.40;;;;;;;3.99;100.00;100581.30;87407;268;22560;-74
2024/03/14 08:28:54;;;;;;;13.70;11.20;;;;;;;4.03;100.00;100580.08;87355;275;138728;-71
2024/03/14 08:30:58;;;;;;;12.30;11.10;;;;;;;4.13;100.00;100587.32;87275;269;25008;-71
2024/03/14 08:33:00;;;;;;;16.20;11.30;;;;;;;4.24;100.00;100584.86;87312;268;137302;-70
2024/03/14 08:35:05;;;;;;;14.50;12.90;;;;;;;4.35;100.00;100585.66;87319;269;22560;-70
2024/03/14 08:37:07;;;;;;;15.60;11.90;;;;;;;4.45;100.00;100584.83;87485;270;138335;-73
2024/03/14 08:39:11;;;;;;;14.40;11.70;;;;;;;4.55;100.00;100582.95;87405;268;22560;-70
2024/03/14 08:41:14;;;;;;;15.60;12.60;;;;;;;4.59;99.75;100580.42;87281;271;136383;-72
2024/03/14 08:43:16;;;;;;;14.80;12.70;;;;;;;4.61;99.79;100579.66;87442;268;22559;-71
2024/03/14 08:45:18;;;;;;;15.60;12.10;;;;;;;4.65;99.05;100582.10;87209;268;136641;-71
2024/03/14 08:47:20;;;;;;;14.90;12.40;;;;;;;4.68;98.04;100582.73;87351;276;22576;-73
2024/03/14 08:49:22;;;;;;;15.40;10.80;;;;;;;4.71;98.39;100581.62;87224;273;137080;-72
2024/03/14 08:51:23;;;;;;;14.30;12.30;;;;;;;4.73;97.38;100583.36;87338;269;25217;-73
2024/03/14 08:53:36;;;;;;;16.80;12.00;;;;;;;4.76;96.55;100584.30;87214;264;138545;-71
2024/03/14 08:55:52;;;;;;;17.80;13.00;;;;;;;4.78;96.43;100580.17;87515;264;25094;-71
2024/03/14 08:57:56;;;;;;;17.30;12.30;;;;;;;4.86;97.03;100579.81;87296;272;136680;-71
2024/03/14 08:59:58;;;;;;;15.40;11.10;;;;;;;4.88;96.13;100577.69;87347;276;25147;-72
2024/03/14 09:02:01;;;;;;;17.90;13.50;;;;;;;4.87;94.76;100578.86;87296;272;137052;-71
2024/03/14 09:04:03;;;;;;;15.40;12.80;;;;;;;4.84;94.75;100577.54;87154;264;136853;-70
2024/03/14 09:06:07;;;;;;;17.70;13.20;;;;;;;4.84;94.40;100579.31;87447;274;23998;-71
2024/03/14 09:08:10;;;;;;;17.80;13.00;;;;;;;4.81;94.23;100577.23;87237;268;136914;-70
2024/03/14 09:10:28;;;;;;;17.80;13.00;;;;;;;4.82;93.88;100581.05;87269;268;22428;-70
2024/03/14 09:12:30;;;;;;;12.90;11.60;;;;;;;4.92;93.74;100581.56;87196;270;137892;-71
2024/03/14 09:14:32;;;;;;;13.10;11.70;;;;;;;5.01;93.10;100577.70;87463;277;25182;-71
2024/03/14 09:16:37;;;;;;;17.90;12.70;;;;;;;5.07;92.55;100574.45;87257;268;136749;-71
2024/03/14 09:18:39;;;;;;;17.60;13.90;;;;;;;5.10;92.01;100572.57;87589;272;25223;-69
2024/03/14 09:20:44;;;;;;;19.00;13.00;;;;;;;5.14;92.19;100573.28;87173;268;136405;-72
2024/03/14 09:22:53;;;;;;;14.60;12.20;;;;;;;5.19;91.12;100576.85;87355;268;26459;-72
2024/03/14 09:24:57;;;;;;;15.00;12.40;;;;;;;5.21;90.22;100572.71;86736;268;647725;-68
2024/03/14 09:26:59;;;;;;;14.40;12.60;;;;;;;5.24;89.81;100577.40;87605;269;22651;-71
2024/03/14 09:29:01;;;;;;;16.80;13.20;;;;;;;5.32;89.26;100579.27;87396;263;137040;-75
2024/03/14 09:31:03;;;;;;;13.40;11.30;;;;;;;5.39;88.22;100582.45;87277;273;22562;-72
2024/03/14 09:33:06;;;;;;;16.40;11.80;;;;;;;5.43;87.07;100589.65;87234;264;136532;-71